Time;durP1;ratioP1;P1;durP2;ratioP2;P2;SDS_P1;SDS_P2;PMS_P1;PMS_P2;Temp;Humidity;BMP_temperature;BMP_pressure;BME280_temperature;BME280_humidity;BME280_pressure;Samples;Min_cycle;Max_cycle;Signal;HPM_P1;HPM_P2
2023/06/23 00:01:57;;;;;;;;;;;;;;;;;;5106718;28;19923;-90
2023/06/23 00:04:24;;;;;;;;;;;;;;;;;;5121820;27;19931;-92
2023/06/23 00:06:52;;;;;;;;;;;;;;;;;;5108244;27;20512;-91
2023/06/23 00:09:22;;;;;;;;;;;;;;;;;;5105588;28;19928;-86
2023/06/23 00:11:50;;;;;;;;;;;;;;;;;;5100718;28;19938;-88
2023/06/23 00:14:17;;;;;;;;;;;;;;;;;;5106169;28;19947;-86
2023/06/23 00:16:45;;;;;;;;;;;;;;;;;;5102588;28;20162;-86
2023/06/23 00:19:12;;;;;;;;;;;;;;;;;;5109354;27;19924;-85
2023/06/23 00:21:40;;;;;;;;;;;;;;;;;;5104639;28;19982;-85
2023/06/23 00:24:07;;;;;;;;;;;;;;;;;;5106187;28;19935;-88
2023/06/23 00:26:35;;;;;;;;;;;;;;;;;;5105676;28;19939;-88
2023/06/23 00:29:05;;;;;;;;;;;;;;;;;;5105719;28;19934;-86
2023/06/23 00:31:34;;;;;;;;;;;;;;;;;;5120248;27;19928;-86
2023/06/23 00:34:01;;;;;;;;;;;;;;;;;;5124274;27;19934;-84
2023/06/23 00:36:30;;;;;;;;;;;;;;;;;;5104590;28;19928;-88
2023/06/23 00:39:02;;;;;;;;;;;;;;;;;;5104898;28;19934;-89
2023/06/23 00:41:30;;;;;;;;;;;;;;;;;;5117994;27;19935;-90
2023/06/23 00:43:59;;;;;;;;;;;;;;;;;;5114269;27;19935;-90
2023/06/23 00:46:26;;;;;;;;;;;;;;;;;;5122398;27;19928;-89
2023/06/23 00:48:54;;;;;;;;;;;;;;;;;;5099930;28;19931;-87
2023/06/23 00:51:22;;;;;;;;;;;;;;;;;;5104655;28;19932;-88
2023/06/23 00:53:51;;;;;;;;;;;;;;;;;;5102265;28;19930;-91
2023/06/23 00:56:21;;;;;;;;;;;;;;;;;;5104380;28;19924;-88
2023/06/23 00:58:48;;;;;;;;;;;;;;;;;;5099724;28;19932;-88
2023/06/23 01:01:16;;;;;;;;;;;;;;;;;;5106080;28;20291;-88
2023/06/23 01:03:44;;;;;;;;;;;;;;;;;;5106214;28;19927;-87
2023/06/23 01:06:13;;;;;;;;;;;;;;;;;;5102772;28;19931;-88
2023/06/23 01:08:41;;;;;;;;;;;;;;;;;;5104978;28;19928;-89
2023/06/23 01:11:09;;;;;;;;;;;;;;;;;;5098661;28;19928;-87
2023/06/23 01:13:37;;;;;;;;;;;;;;;;;;5102606;27;19932;-90
2023/06/23 01:16:06;;;;;;;;;;;;;;;;;;5104542;28;19934;-88
2023/06/23 01:18:34;;;;;;;;;;;;;;;;;;5105285;28;20657;-87
2023/06/23 01:21:02;;;;;;;;;;;;;;;;;;5113764;27;19924;-90
2023/06/23 01:23:29;;;;;;;;;;;;;;;;;;5099313;28;19928;-89
2023/06/23 01:25:57;;;;;;;;;;;;;;;;;;5119891;27;19928;-87
2023/06/23 01:28:25;;;;;;;;;;;;;;;;;;5113418;28;19928;-83
2023/06/23 01:30:53;;;;;;;;;;;;;;;;;;5102913;28;19920;-86
2023/06/23 01:33:22;;;;;;;;;;;;;;;;;;5107288;28;19931;-85
2023/06/23 01:35:51;;;;;;;;;;;;;;;;;;5121667;28;19939;-84
2023/06/23 01:38:19;;;;;;;;;;;;;;;;;;5105642;28;19928;-85
2023/06/23 01:40:47;;;;;;;;;;;;;;;;;;5115355;28;20395;-83
2023/06/23 01:43:14;;;;;;;;;;;;;;;;;;5108951;28;19927;-85
2023/06/23 01:45:42;;;;;;;;;;;;;;;;;;5101511;28;19924;-82
2023/06/23 01:48:09;;;;;;;;;;;;;;;;;;5117843;28;19924;-83
2023/06/23 01:50:37;;;;;;;;;;;;;;;;;;5107324;28;19939;-83
2023/06/23 01:53:10;;;;;;;;;;;;;;;;;;5108027;28;19957;-83
2023/06/23 01:55:38;;;;;;;;;;;;;;;;;;5105144;28;19927;-83
2023/06/23 01:58:05;;;;;;;;;;;;;;;;;;5105434;28;20383;-82
2023/06/23 02:00:33;;;;;;;;;;;;;;;;;;5120650;27;19924;-83
2023/06/23 02:03:00;;;;;;;;;;;;;;;;;;5108570;28;19935;-82
2023/06/23 02:05:28;;;;;;;;;;;;;;;;;;5104534;28;19939;-81
2023/06/23 02:07:55;;;;;;;;;;;;;;;;;;5107187;28;20574;-82
2023/06/23 02:10:28;;;;;;;;;;;;;;;;;;5110403;28;19935;-84
2023/06/23 02:12:55;;;;;;;;;;;;;;;;;;5109658;28;19928;-82
2023/06/23 02:15:28;;;;;;;;;;;;;;;;;;5108013;28;19930;-83
2023/06/23 02:17:56;;;;;;;;;;;;;;;;;;5104988;28;20291;-82
2023/06/23 02:20:23;;;;;;;;;;;;;;;;;;5109586;28;20157;-83
2023/06/23 02:22:51;;;;;;;;;;;;;;;;;;5108558;28;19947;-81
2023/06/23 02:25:18;;;;;;;;;;;;;;;;;;5101945;28;19938;-82
2023/06/23 02:27:46;;;;;;;;;;;;;;;;;;5101602;28;19939;-81
2023/06/23 02:30:13;;;;;;;;;;;;;;;;;;5122858;27;20502;-82
2023/06/23 02:32:41;;;;;;;;;;;;;;;;;;5108336;28;19931;-82
2023/06/23 02:35:09;;;;;;;;;;;;;;;;;;5105977;28;19931;-81
2023/06/23 02:37:36;;;;;;;;;;;;;;;;;;5108469;28;20503;-81
2023/06/23 02:40:06;;;;;;;;;;;;;;;;;;5109459;28;20688;-81
2023/06/23 02:42:33;;;;;;;;;;;;;;;;;;5101851;28;20299;-86
2023/06/23 02:45:01;;;;;;;;;;;;;;;;;;5105982;28;19932;-86
2023/06/23 02:47:28;;;;;;;;;;;;;;;;;;5109325;28;19924;-85
2023/06/23 02:49:56;;;;;;;;;;;;;;;;;;5105598;28;19932;-85
2023/06/23 02:52:23;;;;;;;;;;;;;;;;;;5123191;27;19923;-84
2023/06/23 02:54:51;;;;;;;;;;;;;;;;;;5107068;28;19928;-85
2023/06/23 02:57:19;;;;;;;;;;;;;;;;;;5107720;28;19928;-84
2023/06/23 02:59:46;;;;;;;;;;;;;;;;;;5108427;28;19939;-83
2023/06/23 03:02:19;;;;;;;;;;;;;;;;;;5108262;28;19935;-82
2023/06/23 03:04:46;;;;;;;;;;;;;;;;;;5120732;27;20096;-82
2023/06/23 03:07:14;;;;;;;;;;;;;;;;;;5107837;28;19935;-83
2023/06/23 03:09:42;;;;;;;;;;;;;;;;;;5115399;27;19924;-84
2023/06/23 03:12:10;;;;;;;;;;;;;;;;;;5107531;28;19939;-85
2023/06/23 03:14:38;;;;;;;;;;;;;;;;;;5113471;27;19927;-85
2023/06/23 03:17:06;;;;;;;;;;;;;;;;;;5103958;28;20391;-84
2023/06/23 03:19:34;;;;;;;;;;;;;;;;;;5118863;27;19928;-82
2023/06/23 03:22:01;;;;;;;;;;;;;;;;;;5104532;28;19958;-82
2023/06/23 03:24:34;;;;;;;;;;;;;;;;;;5101238;28;19928;-83
2023/06/23 03:27:02;;;;;;;;;;;;;;;;;;5107755;28;19945;-83
2023/06/23 03:29:29;;;;;;;;;;;;;;;;;;5107412;28;20413;-81
2023/06/23 03:31:57;;;;;;;;;;;;;;;;;;5109145;28;19938;-83
2023/06/23 03:34:24;;;;;;;;;;;;;;;;;;5109049;28;19939;-85
2023/06/23 03:36:52;;;;;;;;;;;;;;;;;;5115533;27;19928;-83
2023/06/23 03:39:20;;;;;;;;;;;;;;;;;;5123501;27;19927;-83
2023/06/23 03:41:47;;;;;;;;;;;;;;;;;;5115450;27;20541;-82
2023/06/23 03:44:15;;;;;;;;;;;;;;;;;;5126568;27;19928;-90
2023/06/23 03:46:43;;;;;;;;;;;;;;;;;;5109683;28;19927;-90
2023/06/23 03:49:10;;;;;;;;;;;;;;;;;;5103969;28;20251;-90
2023/06/23 03:51:38;;;;;;;;;;;;;;;;;;5101982;28;20346;-90
2023/06/23 03:54:05;;;;;;;;;;;;;;;;;;5110832;28;19935;-91
2023/06/23 03:56:33;;;;;;;;;;;;;;;;;;5105440;28;19928;-89
2023/06/23 03:59:00;;;;;;;;;;;;;;;;;;5109240;28;19928;-90
2023/06/23 04:01:28;;;;;;;;;;;;;;;;;;5105981;28;19932;-88
2023/06/23 04:03:55;;;;;;;;;;;;;;;;;;5102994;28;19928;-86
2023/06/23 04:06:28;;;;;;;;;;;;;;;;;;5104859;28;19947;-88
2023/06/23 04:08:55;;;;;;;;;;;;;;;;;;5109245;28;20386;-89
2023/06/23 04:11:23;;;;;;;;;;;;;;;;;;5102186;28;19928;-89
2023/06/23 04:13:51;;;;;;;;;;;;;;;;;;5104290;28;19923;-88
2023/06/23 04:16:18;;;;;;;;;;;;;;;;;;5105015;28;19943;-88
2023/06/23 04:18:46;;;;;;;;;;;;;;;;;;5104031;28;19939;-86
2023/06/23 04:21:13;;;;;;;;;;;;;;;;;;5116588;27;20379;-90
2023/06/23 04:23:46;;;;;;;;;;;;;;;;;;5103584;28;19927;-88
2023/06/23 04:26:13;;;;;;;;;;;;;;;;;;5104805;28;19931;-87
2023/06/23 04:28:41;;;;;;;;;;;;;;;;;;5103954;27;19927;-87
2023/06/23 04:31:13;;;;;;;;;;;;;;;;;;5104647;28;19927;-88
2023/06/23 04:33:41;;;;;;;;;;;;;;;;;;5102043;28;19927;-90
2023/06/23 04:36:08;;;;;;;;;;;;;;;;;;5118810;27;19938;-90
2023/06/23 04:38:36;;;;;;;;;;;;;;;;;;5109636;28;19930;-91
2023/06/23 04:41:04;;;;;;;;;;;;;;;;;;5104828;28;19930;-90
2023/06/23 04:43:37;;;;;;;;;;;;;;;;;;5103028;28;19928;-88
2023/06/23 04:46:05;;;;;;;;;;;;;;;;;;5107012;28;19931;-90
2023/06/23 04:48:32;;;;;;;;;;;;;;;;;;5122431;27;19935;-90
2023/06/23 04:51:00;;;;;;;;;;;;;;;;;;5109565;27;19923;-90
2023/06/23 04:53:27;;;;;;;;;;;;;;;;;;5117054;27;19927;-90
2023/06/23 04:56:00;;;;;;;;;;;;;;;;;;5119513;27;20864;-89
2023/06/23 04:58:28;;;;;;;;;;;;;;;;;;5106050;28;19927;-89
2023/06/23 05:00:55;;;;;;;;;;;;;;;;;;5101111;28;19939;-88
2023/06/23 05:03:23;;;;;;;;;;;;;;;;;;5095850;28;19931;-89
2023/06/23 05:05:51;;;;;;;;;;;;;;;;;;5102231;28;19932;-90
2023/06/23 05:08:18;;;;;;;;;;;;;;;;;;5105366;28;19928;-89
2023/06/23 05:10:46;;;;;;;;;;;;;;;;;;5103293;28;19940;-91
2023/06/23 05:13:14;;;;;;;;;;;;;;;;;;5099011;28;19928;-91
2023/06/23 05:15:41;;;;;;;;;;;;;;;;;;5106970;28;19931;-92
2023/06/23 05:18:09;;;;;;;;;;;;;;;;;;5107319;28;19934;-90
2023/06/23 05:20:36;;;;;;;;;;;;;;;;;;5100426;28;19928;-90
2023/06/23 05:23:05;;;;;;;;;;;;;;;;;;5105010;28;19928;-92
2023/06/23 05:25:33;;;;;;;;;;;;;;;;;;5105108;28;19924;-89
2023/06/23 05:28:00;;;;;;;;;;;;;;;;;;5108684;28;20394;-90
2023/06/23 05:30:28;;;;;;;;;;;;;;;;;;5108943;28;19923;-90
2023/06/23 05:32:56;;;;;;;;;;;;;;;;;;5104064;28;20322;-88
2023/06/23 05:35:23;;;;;;;;;;;;;;;;;;5106854;28;19935;-90
2023/06/23 05:37:51;;;;;;;;;;;;;;;;;;5105992;28;19939;-86
2023/06/23 05:40:22;;;;;;;;;;;;;;;;;;5108453;28;19932;-90
2023/06/23 05:42:49;;;;;;;;;;;;;;;;;;5099063;28;19927;-90
2023/06/23 05:45:17;;;;;;;;;;;;;;;;;;5105843;28;19927;-89
2023/06/23 05:47:44;;;;;;;;;;;;;;;;;;5100532;28;19939;-89
2023/06/23 05:50:12;;;;;;;;;;;;;;;;;;5114757;28;20402;-88
2023/06/23 05:52:39;;;;;;;;;;;;;;;;;;5103191;28;20272;-92
2023/06/23 05:55:07;;;;;;;;;;;;;;;;;;5105726;28;19928;-91
2023/06/23 05:57:35;;;;;;;;;;;;;;;;;;5108662;28;19927;-90
2023/06/23 06:00:04;;;;;;;;;;;;;;;;;;5121944;28;19936;-92
2023/06/23 06:02:38;;;;;;;;;;;;;;;;;;5110005;28;19935;-91
2023/06/23 06:05:07;;;;;;;;;;;;;;;;;;5101617;28;19924;-92
2023/06/23 06:07:35;;;;;;;;;;;;;;;;;;5105295;28;19954;-91
2023/06/23 06:10:02;;;;;;;;;;;;;;;;;;5115999;28;19935;-91
2023/06/23 06:12:30;;;;;;;;;;;;;;;;;;5099294;28;19932;-92
2023/06/23 06:14:57;;;;;;;;;;;;;;;;;;5105929;28;19924;-89
2023/06/23 06:17:25;;;;;;;;;;;;;;;;;;5102073;28;19928;-93
2023/06/23 06:19:53;;;;;;;;;;;;;;;;;;5105084;28;19928;-91
2023/06/23 06:22:20;;;;;;;;;;;;;;;;;;5106359;28;19923;-92
2023/06/23 06:24:51;;;;;;;;;;;;;;;;;;5105792;28;19924;-90
2023/06/23 06:27:21;;;;;;;;;;;;;;;;;;5105041;28;19939;-91
2023/06/23 06:29:49;;;;;;;;;;;;;;;;;;5109929;28;20008;-90
2023/06/23 06:32:16;;;;;;;;;;;;;;;;;;5106118;28;20367;-89
2023/06/23 06:34:44;;;;;;;;;;;;;;;;;;5104978;28;20736;-87
2023/06/23 06:37:12;;;;;;;;;;;;;;;;;;5117749;28;19931;-87
2023/06/23 06:39:40;;;;;;;;;;;;;;;;;;5099748;28;19924;-90
2023/06/23 06:42:07;;;;;;;;;;;;;;;;;;5118743;28;20291;-88
2023/06/23 06:44:35;;;;;;;;;;;;;;;;;;5098470;28;20437;-87
2023/06/23 06:47:03;;;;;;;;;;;;;;;;;;5123011;27;19924;-89
2023/06/23 06:49:30;;;;;;;;;;;;;;;;;;5110525;28;19930;-86
2023/06/23 06:52:03;;;;;;;;;;;;;;;;;;5100220;28;19941;-87
2023/06/23 06:54:35;;;;;;;;;;;;;;;;;;5107324;28;19927;-89
2023/06/23 06:57:03;;;;;;;;;;;;;;;;;;5105977;28;20421;-87
2023/06/23 06:59:30;;;;;;;;;;;;;;;;;;5108209;28;20306;-87
2023/06/23 07:02:03;;;;;;;;;;;;;;;;;;5106647;28;19935;-86
2023/06/23 07:04:31;;;;;;;;;;;;;;;;;;5103449;28;21548;-88
2023/06/23 07:06:59;;;;;;;;;;;;;;;;;;5106359;28;21993;-88
2023/06/23 07:09:26;;;;;;;;;;;;;;;;;;5075590;28;20178;-85
2023/06/23 07:11:54;;;;;;;;;;;;;;;;;;5066188;28;19932;-87
2023/06/23 07:14:21;;;;;;;;;;;;;;;;;;5066686;28;20234;-88
2023/06/23 07:16:49;;;;;;;;;;;;;;;;;;5084146;27;19932;-85
2023/06/23 07:19:17;;;;;;;;;;;;;;;;;;5084898;27;20383;-87
2023/06/23 07:21:44;;;;;;;;;;;;;;;;;;5068088;28;19932;-88
2023/06/23 07:24:17;;;;;;;;;;;;;;;;;;5082890;28;20671;-90
2023/06/23 07:26:44;;;;;;;;;;;;;;;;;;5080855;28;19932;-87
2023/06/23 07:29:12;;;;;;;;;;;;;;;;;;5078735;28;19932;-88
2023/06/23 07:31:42;;;;;;;;;;;;;;;;;;5090227;28;19931;-88
2023/06/23 07:34:09;;;;;;;;;;;;;;;;;;5100111;27;20296;-87
2023/06/23 07:36:45;;;;;;;;;;;;;;;;;;5080192;28;19938;-92
2023/06/23 07:39:13;;;;;;;;;;;;;;;;;;5077788;28;19939;-88
2023/06/23 07:41:41;;;;;;;;;;;;;;;;;;5081133;28;20477;-87
2023/06/23 07:44:08;;;;;;;;;;;;;;;;;;5082839;28;19932;-88
2023/06/23 07:46:36;;;;;;;;;;;;;;;;;;5102980;27;20064;-89
2023/06/23 07:49:03;;;;;;;;;;;;;;;;;;5083742;28;19932;-91
2023/06/23 07:51:31;;;;;;;;;;;;;;;;;;5098829;27;19943;-89
2023/06/23 07:53:59;;;;;;;;;;;;;;;;;;5076432;28;19939;-88
2023/06/23 07:56:27;;;;;;;;;;;;;;;;;;5075621;28;19936;-86
2023/06/23 07:58:55;;;;;;;;;;;;;;;;;;5104352;27;19931;-86
2023/06/23 09:06:31;;;;;;;;;;;;;;;;;;4867733;29;19947;-90
2023/06/23 09:08:59;;;;;;;;;;;;;;;;;;4856969;29;19935;-89
2023/06/23 09:11:27;;;;;;;;;;;;;;;;;;4887803;29;19935;-88
2023/06/23 09:17:37;;;;;;;;;;;;;;;;;;4886053;29;19942;-87
2023/06/23 09:20:06;;;;;;;;;;;;;;;;;;4905226;29;19935;-90
2023/06/23 09:22:48;;;;;;;;;;;;;;;;;;4892146;29;19942;-89
2023/06/23 09:25:15;;;;;;;;;;;;;;;;;;4903371;29;19934;-89
2023/06/23 09:27:43;;;;;;;;;;;;;;;;;;4904754;29;20731;-87
2023/06/23 09:30:11;;;;;;;;;;;;;;;;;;4906870;29;19946;-91
2023/06/23 09:32:39;;;;;;;;;;;;;;;;;;4912461;29;21234;-87
2023/06/23 09:35:09;;;;;;;;;;;;;;;;;;4907250;29;19930;-87
2023/06/23 09:37:37;;;;;;;;;;;;;;;;;;4889153;29;20034;-89
2023/06/23 09:40:06;;;;;;;;;;;;;;;;;;4903402;29;20422;-88
2023/06/23 09:46:09;;;;;;;;;;;;;;;;;;4962436;28;19925;-86
2023/06/23 09:48:37;;;;;;;;;;;;;;;;;;4968339;28;19933;-87
2023/06/23 09:51:05;;;;;;;;;;;;;;;;;;4984104;28;19937;-90
2023/06/23 09:53:33;;;;;;;;;;;;;;;;;;4972516;28;19938;-88
2023/06/23 09:56:00;;;;;;;;;;;;;;;;;;4966603;28;20565;-87
2023/06/23 09:58:28;;;;;;;;;;;;;;;;;;4988443;28;20426;-88
2023/06/23 10:00:55;;;;;;;;;;;;;;;;;;4992932;28;19945;-88
2023/06/23 10:03:23;;;;;;;;;;;;;;;;;;4977275;28;19933;-88
2023/06/23 10:05:51;;;;;;;;;;;;;;;;;;4983700;28;19934;-88
2023/06/23 10:08:18;;;;;;;;;;;;;;;;;;4941996;28;19934;-85
2023/06/23 10:10:46;;;;;;;;;;;;;;;;;;4970492;28;19941;-90
2023/06/23 10:13:15;;;;;;;;;;;;;;;;;;4965946;28;19934;-88
2023/06/23 10:15:42;;;;;;;;;;;;;;;;;;4972161;28;21293;-87
2023/06/23 10:18:11;;;;;;;;;;;;;;;;;;4969299;28;20298;-87
2023/06/23 10:20:47;;;;;;;;;;;;;;;;;;4970522;28;19934;-89
2023/06/23 10:23:14;;;;;;;;;;;;;;;;;;4988457;28;19934;-87
2023/06/23 10:25:42;;;;;;;;;;;;;;;;;;4988524;28;19944;-87
2023/06/23 10:28:10;;;;;;;;;;;;;;;;;;4951711;28;20495;-87
2023/06/23 10:30:37;;;;;;;;;;;;;;;;;;4965775;28;19934;-88
2023/06/23 10:33:05;;;;;;;;;;;;;;;;;;4950862;28;19934;-89
2023/06/23 10:35:32;;;;;;;;;;;;;;;;;;4952310;28;19934;-88
2023/06/23 10:38:00;;;;;;;;;;;;;;;;;;4949882;28;19940;-88
2023/06/23 10:40:30;;;;;;;;;;;;;;;;;;4954806;28;19930;-88
2023/06/23 10:42:59;;;;;;;;;;;;;;;;;;4977385;28;19934;-88
2023/06/23 10:45:27;;;;;;;;;;;;;;;;;;4965076;28;19933;-89
2023/06/23 10:47:55;;;;;;;;;;;;;;;;;;4977580;28;19934;-88
2023/06/23 10:50:23;;;;;;;;;;;;;;;;;;4978392;28;19934;-87
2023/06/23 10:52:53;;;;;;;;;;;;;;;;;;4981640;28;19940;-83
2023/06/23 10:55:27;;;;;;;;;;;;;;;;;;4967661;28;19934;-88
2023/06/23 10:58:34;;;;;;;;;;;;;;;;;;4963077;28;20603;-88
2023/06/23 11:01:02;;;;;;;;;;;;;;;;;;4964661;28;19941;-86
2023/06/23 11:03:29;;;;;;;;;;;;;;;;;;4962655;28;19937;-87
2023/06/23 11:05:57;;;;;;;;;;;;;;;;;;4974418;28;19934;-87
2023/06/23 11:11:21;;;;;;;;;;;;;;;;;;4960103;28;19933;-87
2023/06/23 11:17:04;;;;;;;;;;;;;;;;;;4982242;28;19929;-89
2023/06/23 11:29:48;;;;;;;;;;;;;;;;;;4982009;28;20404;-88
2023/06/23 11:32:37;;;;;;;;;;;;;;;;;;4975952;28;19934;-89
2023/06/23 11:38:28;;;;;;;;;;;;;;;;;;4974454;28;19930;-89
2023/06/23 11:40:56;;;;;;;;;;;;;;;;;;4974466;28;19944;-84
2023/06/23 11:43:31;;;;;;;;;;;;;;;;;;4988627;28;19934;-88
2023/06/23 11:45:59;;;;;;;;;;;;;;;;;;4973594;28;19944;-88
2023/06/23 11:58:03;;;;;;;;;;;;;;;;;;4976053;28;19929;-89
2023/06/23 12:00:44;;;;;;;;;;;;;;;;;;4956900;28;19934;-90
2023/06/23 12:06:14;;;;;;;;;;;;;;;;;;4957442;28;19934;-90
2023/06/23 12:08:45;;;;;;;;;;;;;;;;;;4965733;28;19934;-91
2023/06/23 12:11:20;;;;;;;;;;;;;;;;;;4959890;28;19934;-88
2023/06/23 12:13:48;;;;;;;;;;;;;;;;;;4964766;28;20317;-90
2023/06/23 12:19:05;;;;;;;;;;;;;;;;;;4922484;28;20562;-89
2023/06/23 12:28:18;;;;;;;;;;;;;;;;;;4925595;28;19942;-89
2023/06/23 12:30:51;;;;;;;;;;;;;;;;;;4932641;28;19934;-90
2023/06/23 12:44:51;;;;;;;;;;;;;;;;;;4892100;29;20339;-82
2023/06/23 12:47:28;;;;;;;;;;;;;;;;;;4904818;28;19965;-82
2023/06/23 12:49:56;;;;;;;;;;;;;;;;;;4930023;28;19937;-80
2023/06/23 12:52:24;;;;;;;;;;;;;;;;;;4977991;28;19964;-82
2023/06/23 12:54:57;;;;;;;;;;;;;;;;;;4977137;28;19930;-84
2023/06/23 13:10:27;;;;;;;;;;;;;;;;;;4928767;28;19937;-91
2023/06/23 13:13:14;;;;;;;;;;;;;;;;;;4929726;28;20524;-91
2023/06/23 13:19:07;;;;;;;;;;;;;;;;;;4895937;29;19935;-95
2023/06/23 13:21:49;;;;;;;;;;;;;;;;;;4929671;28;19941;-93
2023/06/23 13:24:50;;;;;;;;;;;;;;;;;;4943286;28;19934;-93
2023/06/23 13:27:32;;;;;;;;;;;;;;;;;;4952509;28;19937;-93
2023/06/23 13:30:45;;;;;;;;;;;;;;;;;;4938570;28;19941;-92
2023/06/23 13:33:36;;;;;;;;;;;;;;;;;;4935295;28;19926;-92
2023/06/23 13:36:24;;;;;;;;;;;;;;;;;;4955333;28;19934;-92
2023/06/23 13:39:02;;;;;;;;;;;;;;;;;;4955710;28;20366;-92
2023/06/23 13:41:30;;;;;;;;;;;;;;;;;;4953482;28;19941;-92
2023/06/23 13:43:58;;;;;;;;;;;;;;;;;;4934488;28;20907;-91
2023/06/23 13:46:26;;;;;;;;;;;;;;;;;;4919197;28;20180;-92
2023/06/23 13:48:54;;;;;;;;;;;;;;;;;;4953091;28;19933;-91
2023/06/23 13:51:31;;;;;;;;;;;;;;;;;;4945481;28;19941;-91
2023/06/23 13:53:59;;;;;;;;;;;;;;;;;;4953579;28;19933;-91
2023/06/23 13:56:26;;;;;;;;;;;;;;;;;;4958421;28;19934;-90
2023/06/23 13:58:54;;;;;;;;;;;;;;;;;;4950387;28;19940;-90
2023/06/23 14:01:31;;;;;;;;;;;;;;;;;;4963522;28;19929;-91
2023/06/23 14:03:59;;;;;;;;;;;;;;;;;;4961592;28;20903;-90
2023/06/23 14:09:27;;;;;;;;;;;;;;;;;;4962173;28;20575;-91
2023/06/23 14:12:29;;;;;;;;;;;;;;;;;;4974406;28;20406;-93
2023/06/23 14:18:24;;;;;;;;;;;;;;;;;;4972078;28;20788;-88
2023/06/23 14:21:15;;;;;;;;;;;;;;;;;;4964967;28;19934;-92
2023/06/23 14:24:26;;;;;;;;;;;;;;;;;;4964040;28;19941;-94
2023/06/23 14:27:09;;;;;;;;;;;;;;;;;;4963544;28;19933;-94
2023/06/23 14:29:55;;;;;;;;;;;;;;;;;;4966162;28;19937;-93
2023/06/23 14:32:52;;;;;;;;;;;;;;;;;;4957099;28;19941;-92
2023/06/23 14:35:20;;;;;;;;;;;;;;;;;;4966638;28;19925;-91
2023/06/23 14:37:48;;;;;;;;;;;;;;;;;;4970653;28;19948;-91
2023/06/23 14:40:24;;;;;;;;;;;;;;;;;;4951448;28;19940;-94
2023/06/23 14:43:09;;;;;;;;;;;;;;;;;;4964168;28;19934;-92
2023/06/23 14:45:37;;;;;;;;;;;;;;;;;;4968829;28;19933;-92
2023/06/23 14:50:45;;;;;;;;;;;;;;;;;;5023725;23;19940;-90
2023/06/23 14:53:13;;;;;;;;;;;;;;;;;;4992836;28;19941;-88
2023/06/23 14:55:41;;;;;;;;;;;;;;;;;;4988564;28;20792;-90
2023/06/23 14:58:08;;;;;;;;;;;;;;;;;;5021787;28;19933;-86
2023/06/23 15:00:36;;;;;;;;;;;;;;;;;;5009202;28;20298;-84
2023/06/23 15:03:04;;;;;;;;;;;;;;;;;;4994164;28;19933;-89
2023/06/23 15:05:33;;;;;;;;;;;;;;;;;;5004604;28;19934;-90
2023/06/23 15:08:01;;;;;;;;;;;;;;;;;;4989751;28;19956;-87
2023/06/23 15:10:29;;;;;;;;;;;;;;;;;;4980219;28;19933;-87
2023/06/23 15:12:56;;;;;;;;;;;;;;;;;;4984475;28;19933;-88
2023/06/23 15:15:24;;;;;;;;;;;;;;;;;;4987787;28;20724;-87
2023/06/23 15:17:52;;;;;;;;;;;;;;;;;;4993055;28;19933;-90
2023/06/23 15:20:19;;;;;;;;;;;;;;;;;;5005428;28;19933;-88
2023/06/23 15:22:47;;;;;;;;;;;;;;;;;;4992233;28;19933;-90
2023/06/23 15:25:15;;;;;;;;;;;;;;;;;;4981296;28;19934;-88
2023/06/23 15:27:42;;;;;;;;;;;;;;;;;;5009698;28;19934;-87
2023/06/23 15:30:15;;;;;;;;;;;;;;;;;;4992820;28;19975;-89
2023/06/23 15:32:42;;;;;;;;;;;;;;;;;;4989137;28;19937;-87
2023/06/23 15:35:10;;;;;;;;;;;;;;;;;;4989976;28;19940;-89
2023/06/23 15:37:38;;;;;;;;;;;;;;;;;;4989968;28;19944;-88
2023/06/23 15:40:06;;;;;;;;;;;;;;;;;;4998496;28;20461;-88
2023/06/23 15:42:33;;;;;;;;;;;;;;;;;;4981823;28;20904;-88
2023/06/23 15:45:01;;;;;;;;;;;;;;;;;;4985522;28;20381;-88
2023/06/23 15:47:28;;;;;;;;;;;;;;;;;;4998584;28;19933;-88
2023/06/23 15:49:56;;;;;;;;;;;;;;;;;;4968933;28;19933;-88
2023/06/23 15:52:29;;;;;;;;;;;;;;;;;;4999001;28;19941;-87
2023/06/23 15:54:56;;;;;;;;;;;;;;;;;;5000335;28;19941;-87
2023/06/23 15:57:24;;;;;;;;;;;;;;;;;;4984782;28;19937;-87
2023/06/23 15:59:51;;;;;;;;;;;;;;;;;;4981721;28;20297;-87
2023/06/23 16:02:21;;;;;;;;;;;;;;;;;;4982275;28;20596;-88
2023/06/23 16:04:54;;;;;;;;;;;;;;;;;;4984845;28;19937;-86
2023/06/23 16:07:21;;;;;;;;;;;;;;;;;;4997696;28;19933;-88
2023/06/23 16:09:49;;;;;;;;;;;;;;;;;;4989140;28;19933;-87
2023/06/23 16:12:17;;;;;;;;;;;;;;;;;;4982156;28;19949;-87
2023/06/23 16:14:44;;;;;;;;;;;;;;;;;;4998811;28;19929;-88
2023/06/23 16:17:12;;;;;;;;;;;;;;;;;;4982383;28;20421;-88
2023/06/23 16:19:40;;;;;;;;;;;;;;;;;;4982502;28;19941;-87
2023/06/23 16:22:07;;;;;;;;;;;;;;;;;;4990255;28;20409;-88
2023/06/23 16:24:40;;;;;;;;;;;;;;;;;;4987634;28;19940;-87
2023/06/23 16:27:07;;;;;;;;;;;;;;;;;;4986511;28;19934;-88
2023/06/23 16:29:35;;;;;;;;;;;;;;;;;;5003378;28;19932;-85
2023/06/23 16:32:02;;;;;;;;;;;;;;;;;;4985593;28;19929;-86
2023/06/23 16:34:30;;;;;;;;;;;;;;;;;;4991891;28;19940;-86
2023/06/23 16:36:58;;;;;;;;;;;;;;;;;;4982479;28;19933;-88
2023/06/23 16:39:25;;;;;;;;;;;;;;;;;;4992715;28;19955;-89
2023/06/23 16:41:54;;;;;;;;;;;;;;;;;;4990268;28;19933;-89
2023/06/23 16:44:22;;;;;;;;;;;;;;;;;;4987566;28;19933;-89
2023/06/23 16:46:50;;;;;;;;;;;;;;;;;;4985995;28;19934;-89
2023/06/23 16:49:18;;;;;;;;;;;;;;;;;;4978146;28;19933;-88
2023/06/23 16:51:45;;;;;;;;;;;;;;;;;;4992900;28;19940;-82
2023/06/23 16:54:13;;;;;;;;;;;;;;;;;;5004113;28;19930;-85
2023/06/23 16:56:41;;;;;;;;;;;;;;;;;;4994336;28;19933;-89
2023/06/23 16:59:08;;;;;;;;;;;;;;;;;;4997841;28;19929;-83
2023/06/23 17:01:36;;;;;;;;;;;;;;;;;;4987970;28;19933;-87
2023/06/23 17:04:04;;;;;;;;;;;;;;;;;;4988635;28;19940;-87
2023/06/23 17:06:31;;;;;;;;;;;;;;;;;;4985388;28;19949;-88
2023/06/23 17:08:59;;;;;;;;;;;;;;;;;;5000956;28;20530;-84
2023/06/23 17:11:27;;;;;;;;;;;;;;;;;;5000545;28;20408;-89
2023/06/23 17:13:55;;;;;;;;;;;;;;;;;;4995890;28;19941;-87
2023/06/23 17:16:22;;;;;;;;;;;;;;;;;;4984933;28;19940;-87
2023/06/23 17:18:50;;;;;;;;;;;;;;;;;;4985811;28;19960;-85
2023/06/23 17:21:22;;;;;;;;;;;;;;;;;;4989825;28;19940;-87
2023/06/23 17:23:50;;;;;;;;;;;;;;;;;;4981438;28;19934;-86
2023/06/23 17:26:18;;;;;;;;;;;;;;;;;;4981503;28;19933;-89
2023/06/23 17:28:45;;;;;;;;;;;;;;;;;;4982195;28;19933;-88
2023/06/23 17:31:13;;;;;;;;;;;;;;;;;;4985049;28;20649;-88
2023/06/23 17:33:41;;;;;;;;;;;;;;;;;;4995055;28;19926;-87
2023/06/23 17:36:09;;;;;;;;;;;;;;;;;;4989457;28;19983;-87
2023/06/23 17:38:38;;;;;;;;;;;;;;;;;;4987964;28;19952;-88
2023/06/23 17:41:06;;;;;;;;;;;;;;;;;;4984678;28;20317;-88
2023/06/23 17:43:34;;;;;;;;;;;;;;;;;;4986389;28;19933;-88
2023/06/23 17:46:01;;;;;;;;;;;;;;;;;;4993181;28;20406;-88
2023/06/23 17:48:29;;;;;;;;;;;;;;;;;;4987201;28;19953;-88
2023/06/23 17:50:56;;;;;;;;;;;;;;;;;;4976518;28;19940;-87
2023/06/23 17:53:29;;;;;;;;;;;;;;;;;;4981542;28;19933;-89
2023/06/23 17:55:57;;;;;;;;;;;;;;;;;;4984515;28;19933;-87
2023/06/23 17:58:24;;;;;;;;;;;;;;;;;;4985501;28;19930;-87
2023/06/23 18:00:52;;;;;;;;;;;;;;;;;;4990681;28;19939;-90
2023/06/23 18:03:19;;;;;;;;;;;;;;;;;;4987719;28;19940;-88
2023/06/23 18:05:47;;;;;;;;;;;;;;;;;;4983649;28;20309;-87
2023/06/23 18:08:15;;;;;;;;;;;;;;;;;;4986494;28;19940;-90
2023/06/23 18:10:43;;;;;;;;;;;;;;;;;;4993285;28;20313;-88
2023/06/23 18:13:15;;;;;;;;;;;;;;;;;;4995889;28;19933;-89
2023/06/23 18:15:43;;;;;;;;;;;;;;;;;;5002936;28;19940;-88
2023/06/23 18:18:11;;;;;;;;;;;;;;;;;;4989374;28;19934;-90
2023/06/23 18:20:39;;;;;;;;;;;;;;;;;;4980509;28;19941;-89
2023/06/23 18:23:06;;;;;;;;;;;;;;;;;;4981210;28;20232;-88
2023/06/23 18:25:34;;;;;;;;;;;;;;;;;;5000774;28;19933;-88
2023/06/23 18:28:01;;;;;;;;;;;;;;;;;;4981904;28;19929;-89
2023/06/23 18:30:34;;;;;;;;;;;;;;;;;;5000385;28;21357;-87
2023/06/23 18:33:01;;;;;;;;;;;;;;;;;;4981403;28;19971;-89
2023/06/23 18:35:29;;;;;;;;;;;;;;;;;;4983752;28;19933;-89
2023/06/23 18:37:57;;;;;;;;;;;;;;;;;;4983894;28;19967;-89
2023/06/23 18:40:24;;;;;;;;;;;;;;;;;;4983936;28;20302;-87
2023/06/23 18:42:52;;;;;;;;;;;;;;;;;;4984131;28;19956;-89
2023/06/23 18:45:20;;;;;;;;;;;;;;;;;;4984831;28;19933;-88
2023/06/23 18:47:47;;;;;;;;;;;;;;;;;;4988294;28;19934;-88
2023/06/23 18:50:15;;;;;;;;;;;;;;;;;;5002967;28;19929;-87
2023/06/23 18:52:42;;;;;;;;;;;;;;;;;;4985616;28;20020;-88
2023/06/23 18:55:10;;;;;;;;;;;;;;;;;;4994184;28;20724;-87
2023/06/23 18:57:37;;;;;;;;;;;;;;;;;;4987660;28;19925;-88
2023/06/23 19:00:05;;;;;;;;;;;;;;;;;;4999187;28;19933;-88
2023/06/23 19:02:38;;;;;;;;;;;;;;;;;;4990764;28;19941;-87
2023/06/23 19:05:06;;;;;;;;;;;;;;;;;;4989411;28;19934;-87
2023/06/23 19:07:33;;;;;;;;;;;;;;;;;;4995212;28;19944;-87
2023/06/23 19:10:01;;;;;;;;;;;;;;;;;;4982591;28;20297;-89
2023/06/23 19:12:28;;;;;;;;;;;;;;;;;;4984956;28;20321;-88
2023/06/23 19:14:56;;;;;;;;;;;;;;;;;;4990037;28;20401;-87
2023/06/23 19:17:24;;;;;;;;;;;;;;;;;;5004770;28;19956;-86
2023/06/23 19:19:51;;;;;;;;;;;;;;;;;;4992489;28;20590;-87
2023/06/23 19:22:19;;;;;;;;;;;;;;;;;;4987404;28;19940;-88
2023/06/23 19:24:46;;;;;;;;;;;;;;;;;;4984129;28;19940;-89
2023/06/23 19:27:14;;;;;;;;;;;;;;;;;;5000810;28;20579;-88
2023/06/23 19:29:41;;;;;;;;;;;;;;;;;;4999993;28;19933;-88
2023/06/23 19:32:09;;;;;;;;;;;;;;;;;;5003310;28;19933;-87